Time;durP1;ratioP1;P1;durP2;ratioP2;P2;SDS_P1;SDS_P2;PMS_P1;PMS_P2;Temp;Humidity;BMP_temperature;BMP_pressure;BME280_temperature;BME280_humidity;BME280_pressure;Samples;Min_cycle;Max_cycle;Signal;HPM_P1;HPM_P2
2023/05/31 00:00:13;;;;;;;4.20;3.10;;;;;;;17.48;100.00;100563.44;107216;1254;72937;-84
2023/05/31 00:02:40;;;;;;;9.20;3.70;;;;;;;17.48;100.00;100564.55;106772;1255;63943;-85
2023/05/31 00:05:07;;;;;;;6.10;3.60;;;;;;;17.47;100.00;100567.41;106600;1254;71786;-85
2023/05/31 00:07:35;;;;;;;3.70;2.80;;;;;;;17.43;100.00;100563.23;107168;1257;60888;-85
2023/05/31 00:10:02;;;;;;;4.90;3.00;;;;;;;17.35;100.00;100564.64;107208;1253;59676;-85
2023/05/31 00:12:29;;;;;;;8.10;3.70;;;;;;;17.30;100.00;100564.91;107196;1253;71670;-86
2023/05/31 00:14:56;;;;;;;10.00;3.80;;;;;;;17.28;100.00;100561.58;107274;1254;63734;-83
2023/05/31 00:17:23;;;;;;;3.10;2.80;;;;;;;17.27;100.00;100557.40;107053;1254;71767;-83
2023/05/31 00:20:10;;;;;;;4.80;3.30;;;;;;;17.25;100.00;100557.04;107091;1254;60727;-85
2023/05/31 00:22:37;;;;;;;6.30;3.50;;;;;;;17.24;100.00;100555.23;106188;1254;59697;-85
2023/05/31 00:25:05;;;;;;;4.80;3.50;;;;;;;17.25;100.00;100562.37;106185;1254;73037;-86
2023/05/31 00:27:32;;;;;;;4.00;3.30;;;;;;;17.27;100.00;100561.31;106086;1254;63818;-86
2023/05/31 00:29:59;;;;;;;6.30;3.80;;;;;;;17.28;100.00;100562.56;106007;1254;71362;-85
2023/05/31 00:32:26;;;;;;;7.00;3.40;;;;;;;17.30;100.00;100565.23;105942;1256;61773;-87
2023/05/31 00:34:54;;;;;;;3.90;2.90;;;;;;;17.32;100.00;100565.09;106037;1254;60348;-85
2023/05/31 00:37:20;;;;;;;6.80;4.10;;;;;;;17.34;100.00;100568.27;106005;1254;70652;-85
2023/05/31 00:39:48;;;;;;;8.40;3.50;;;;;;;17.34;100.00;100570.19;106081;1256;64343;-85
2023/05/31 00:42:15;;;;;;;6.80;3.60;;;;;;;17.34;100.00;100574.08;106017;1253;71144;-86
2023/05/31 00:44:41;;;;;;;4.60;3.40;;;;;;;17.35;100.00;100571.54;105927;1254;61887;-87
2023/05/31 00:47:09;;;;;;;10.00;3.90;;;;;;;17.35;100.00;100569.61;105963;1254;60420;-88
2023/05/31 00:49:36;;;;;;;11.90;3.20;;;;;;;17.34;100.00;100567.69;105853;1258;72794;-84
2023/05/31 00:52:04;;;;;;;7.00;3.50;;;;;;;17.33;100.00;100566.77;105952;1257;63938;-86
2023/05/31 00:54:31;;;;;;;6.70;3.80;;;;;;;17.33;100.00;100567.48;105892;1255;70345;-85
2023/05/31 00:57:00;;;;;;;8.40;4.10;;;;;;;17.31;100.00;100570.83;105932;1257;61859;-85
2023/05/31 00:59:27;;;;;;;5.40;3.70;;;;;;;17.30;100.00;100568.86;105968;1254;60014;-84
2023/05/31 01:01:55;;;;;;;5.60;3.40;;;;;;;17.26;100.00;100567.75;105847;1257;72054;-83
2023/05/31 01:04:22;;;;;;;11.20;4.30;;;;;;;17.23;100.00;100566.55;106015;1254;63684;-85
2023/05/31 01:06:56;;;;;;;5.30;3.70;;;;;;;17.22;100.00;100566.68;106253;1257;72952;-84
2023/05/31 01:09:24;;;;;;;7.60;3.70;;;;;;;17.19;100.00;100568.86;105951;1256;61767;-84
2023/05/31 01:12:09;;;;;;;6.20;3.90;;;;;;;17.14;100.00;100572.11;105918;1253;60236;-85
2023/05/31 01:14:46;;;;;;;6.00;3.70;;;;;;;17.11;100.00;100573.81;105953;1254;71826;-86
2023/05/31 01:17:30;;;;;;;8.10;3.60;;;;;;;17.06;100.00;100574.65;105986;1254;63019;-85
2023/05/31 01:20:00;;;;;;;5.20;3.80;;;;;;;17.04;100.00;100576.80;106167;1254;71531;-84
2023/05/31 01:22:37;;;;;;;4.50;4.10;;;;;;;16.99;100.00;100581.27;106136;1253;61813;-85
2023/05/31 01:25:17;;;;;;;6.40;3.60;;;;;;;16.93;100.00;100580.33;109447;1253;60128;-85
2023/05/31 01:27:44;;;;;;;6.90;3.90;;;;;;;16.91;100.00;100581.41;108866;1257;71741;-85
2023/05/31 01:30:11;;;;;;;6.30;3.60;;;;;;;16.90;100.00;100582.92;106211;1254;63713;-86
2023/05/31 01:32:38;;;;;;;5.70;3.70;;;;;;;16.90;100.00;100585.02;106073;1254;72696;-84
2023/05/31 01:35:06;;;;;;;8.40;4.30;;;;;;;16.88;100.00;100584.16;106687;1254;62007;-83
2023/05/31 01:37:33;;;;;;;7.10;3.90;;;;;;;16.84;100.00;100586.80;106216;1254;60339;-84
2023/05/31 01:39:59;;;;;;;4.80;4.40;;;;;;;16.82;100.00;100585.73;106335;1256;71946;-85
2023/05/31 01:42:26;;;;;;;6.40;5.10;;;;;;;16.78;100.00;100583.73;106155;1254;62673;-85
2023/05/31 01:44:53;;;;;;;12.00;6.00;;;;;;;16.73;100.00;100581.14;107085;1254;71562;-85
2023/05/31 01:47:20;;;;;;;6.00;5.30;;;;;;;16.70;100.00;100583.24;106099;1254;62099;-85
2023/05/31 01:49:48;;;;;;;8.90;6.30;;;;;;;16.66;100.00;100580.54;106299;1253;59673;-86
2023/05/31 01:52:15;;;;;;;7.90;5.80;;;;;;;16.64;100.00;100590.63;107381;1254;72336;-84
2023/05/31 01:54:42;;;;;;;8.60;5.70;;;;;;;16.61;100.00;100588.22;106131;1254;62801;-82
2023/05/31 01:57:09;;;;;;;10.20;5.70;;;;;;;16.59;100.00;100593.17;106162;1256;71409;-87
2023/05/31 01:59:38;;;;;;;10.50;5.60;;;;;;;16.57;100.00;100596.96;106115;1257;62058;-86
2023/05/31 02:02:06;;;;;;;9.60;5.60;;;;;;;16.56;100.00;100595.36;106228;1254;62185;-86
2023/05/31 02:04:33;;;;;;;13.00;5.40;;;;;;;16.54;100.00;100599.23;106180;1253;71774;-86
2023/05/31 02:07:00;;;;;;;9.30;5.60;;;;;;;16.50;100.00;100605.20;106192;1253;63660;-85
2023/05/31 02:09:28;;;;;;;8.70;5.90;;;;;;;16.46;100.00;100602.91;106406;1256;72460;-85
2023/05/31 02:11:55;;;;;;;10.40;5.80;;;;;;;16.44;100.00;100603.80;106140;1253;59837;-85
2023/05/31 02:14:22;;;;;;;8.60;5.50;;;;;;;16.40;100.00;100609.39;106337;1254;60338;-86
2023/05/31 02:16:49;;;;;;;9.30;5.50;;;;;;;16.36;100.00;100617.65;106215;1254;72937;-84
2023/05/31 02:19:16;;;;;;;6.90;5.50;;;;;;;16.31;100.00;100619.48;106466;1257;63676;-84
2023/05/31 02:21:43;;;;;;;8.30;5.10;;;;;;;16.27;100.00;100622.18;107496;1254;72749;-84
2023/05/31 02:24:10;;;;;;;9.50;5.20;;;;;;;16.24;100.00;100622.94;109160;1254;61690;-85
2023/05/31 02:26:38;;;;;;;8.20;5.20;;;;;;;16.23;100.00;100624.02;109297;1253;60011;-86
2023/05/31 02:29:05;;;;;;;7.50;5.30;;;;;;;16.25;100.00;100630.46;109394;1253;71927;-85
2023/05/31 02:31:32;;;;;;;5.90;4.70;;;;;;;16.26;100.00;100633.02;109470;1253;62383;-85
2023/05/31 02:33:59;;;;;;;8.60;5.10;;;;;;;16.27;100.00;100640.14;109525;1252;71180;-85
2023/05/31 02:36:28;;;;;;;11.40;5.10;;;;;;;16.30;100.00;100639.55;109601;1253;60688;-85
2023/05/31 02:38:55;;;;;;;7.20;5.10;;;;;;;16.33;100.00;100639.61;109654;1253;61029;-85
2023/05/31 02:41:22;;;;;;;9.10;5.60;;;;;;;16.36;100.00;100642.69;109618;1253;72782;-85
2023/05/31 02:43:49;;;;;;;6.80;6.20;;;;;;;16.42;100.00;100646.88;109613;1252;62665;-85
2023/05/31 02:46:16;;;;;;;7.90;5.00;;;;;;;16.48;100.00;100649.17;109657;1254;71445;-85
2023/05/31 02:48:45;;;;;;;5.20;4.70;;;;;;;16.53;100.00;100651.71;109644;1252;60790;-85
2023/05/31 02:51:12;;;;;;;5.40;4.80;;;;;;;16.57;100.00;100654.00;109639;1253;57955;-83
2023/05/31 02:54:02;;;;;;;8.10;4.40;;;;;;;16.59;100.00;100654.42;108821;1253;72379;-85
2023/05/31 02:56:31;;;;;;;6.50;4.70;;;;;;;16.60;100.00;100648.48;108910;1254;62708;-86
2023/05/31 02:59:24;;;;;;;8.90;4.90;;;;;;;16.61;100.00;100649.30;109190;1254;71416;-85
2023/05/31 03:01:56;;;;;;;4.80;4.10;;;;;;;16.60;100.00;100648.30;108997;1254;60512;-84
2023/05/31 03:04:27;;;;;;;5.70;4.70;;;;;;;16.61;100.00;100654.27;109058;1252;60418;-85
2023/05/31 03:06:59;;;;;;;8.80;4.60;;;;;;;16.61;100.00;100651.80;108653;1253;72464;-86
2023/05/31 03:09:29;;;;;;;9.50;4.50;;;;;;;16.62;100.00;100654.84;107912;1253;62591;-85
2023/05/31 03:11:57;;;;;;;10.40;4.90;;;;;;;16.64;100.00;100659.12;109046;1253;71304;-85
2023/05/31 03:14:27;;;;;;;7.40;4.70;;;;;;;16.64;100.00;100658.02;109044;1253;60954;-85
2023/05/31 03:16:55;;;;;;;6.60;4.50;;;;;;;16.66;100.00;100658.90;109128;1253;59103;-85
2023/05/31 03:19:22;;;;;;;10.20;4.80;;;;;;;16.66;100.00;100662.81;109249;1254;72563;-84
2023/05/31 03:21:53;;;;;;;7.10;4.30;;;;;;;16.65;100.00;100663.64;108004;1253;62671;-87
2023/05/31 03:24:20;;;;;;;7.00;4.30;;;;;;;16.62;100.00;100666.88;106703;1253;71742;-86
2023/05/31 03:26:48;;;;;;;8.30;4.60;;;;;;;16.57;100.00;100664.41;106546;1253;63396;-86
2023/05/31 03:29:15;;;;;;;6.60;4.10;;;;;;;16.55;100.00;100662.84;106362;1256;60449;-85
2023/05/31 03:31:42;;;;;;;6.60;4.70;;;;;;;16.51;100.00;100663.50;106052;1259;73803;-82
2023/05/31 03:34:10;;;;;;;10.60;5.30;;;;;;;16.47;100.00;100663.65;106242;1254;62680;-85
2023/05/31 03:36:37;;;;;;;6.70;4.50;;;;;;;16.45;100.00;100665.65;105920;1256;70615;-86
2023/05/31 03:39:17;;;;;;;8.40;4.40;;;;;;;16.45;100.00;100663.89;105751;1254;61971;-85
2023/05/31 03:41:44;;;;;;;13.60;4.20;;;;;;;16.45;100.00;100664.39;105912;1253;60917;-85
2023/05/31 03:44:11;;;;;;;7.50;4.20;;;;;;;16.48;100.00;100668.38;105766;1254;75027;-86
2023/05/31 03:46:38;;;;;;;5.30;4.10;;;;;;;16.53;100.00;100667.73;105984;1254;63878;-84
2023/05/31 03:49:06;;;;;;;8.00;4.00;;;;;;;16.60;100.00;100669.51;106444;1254;71447;-84
2023/05/31 03:51:33;;;;;;;5.50;4.20;;;;;;;16.63;100.00;100666.44;106175;1253;60576;-86
2023/05/31 03:54:00;;;;;;;5.80;3.90;;;;;;;16.67;100.00;100667.13;105882;1256;60898;-88
2023/05/31 03:56:27;;;;;;;4.80;4.30;;;;;;;16.72;100.00;100668.98;105764;1256;73711;-85
2023/05/31 03:58:53;;;;;;;7.70;4.90;;;;;;;16.80;100.00;100672.61;105766;1256;63914;-86
2023/05/31 04:01:20;;;;;;;4.80;3.80;;;;;;;16.86;100.00;100672.12;105816;1254;71645;-89
2023/05/31 04:03:48;;;;;;;8.80;4.20;;;;;;;16.91;100.00;100668.80;105772;1254;61705;-85
2023/05/31 04:06:16;;;;;;;5.40;4.40;;;;;;;16.97;100.00;100673.38;105947;1253;60444;-86
2023/05/31 04:08:44;;;;;;;7.10;3.90;;;;;;;17.06;100.00;100669.31;105981;1253;73788;-87
2023/05/31 04:11:11;;;;;;;5.40;4.00;;;;;;;17.22;100.00;100673.00;106039;1254;64388;-88
2023/05/31 04:13:38;;;;;;;19.20;4.70;;;;;;;17.44;100.00;100675.90;105938;1257;72391;-86
2023/05/31 04:16:05;;;;;;;7.90;4.20;;;;;;;17.67;100.00;100676.90;105933;1257;60539;-86
2023/05/31 04:18:32;;;;;;;10.10;5.20;;;;;;;17.88;100.00;100680.50;105882;1256;60383;-88
2023/05/31 04:20:59;;;;;;;6.70;3.80;;;;;;;18.20;100.00;100682.04;105853;1253;73892;-89
2023/05/31 04:23:26;;;;;;;7.30;3.40;;;;;;;18.64;100.00;100684.91;106053;1254;62593;-86
2023/05/31 04:25:54;;;;;;;7.80;3.60;;;;;;;19.14;100.00;100684.98;106222;1256;72443;-89
2023/05/31 04:28:23;;;;;;;6.50;3.90;;;;;;;19.67;100.00;100689.01;109138;1253;60107;-85
2023/05/31 04:30:51;;;;;;;6.50;3.60;;;;;;;20.23;100.00;100690.58;109198;1253;59718;-87
2023/05/31 04:33:19;;;;;;;6.60;3.80;;;;;;;20.85;100.00;100695.92;106004;1257;73696;-86
2023/05/31 04:35:46;;;;;;;6.50;3.50;;;;;;;21.43;100.00;100693.68;106785;1253;64078;-87
2023/05/31 04:38:16;;;;;;;5.10;3.40;;;;;;;21.81;100.00;100697.08;105908;1254;71849;-85
2023/05/31 04:40:44;;;;;;;5.50;4.10;;;;;;;22.12;99.66;100697.60;105862;1253;60580;-86
2023/05/31 04:43:12;;;;;;;5.80;3.80;;;;;;;22.39;97.78;100697.04;105819;1258;60444;-89
2023/05/31 04:45:40;;;;;;;4.20;3.30;;;;;;;22.64;95.30;100691.28;105701;1259;74354;-88
2023/05/31 04:48:08;;;;;;;5.70;3.30;;;;;;;22.79;92.72;100687.98;106077;1254;62029;-88
2023/05/31 04:50:35;;;;;;;6.50;3.70;;;;;;;22.92;92.79;100687.38;105913;1253;71598;-88
2023/05/31 04:53:02;;;;;;;4.60;3.50;;;;;;;23.15;90.54;100686.17;106082;1254;60484;-87
2023/05/31 04:55:29;;;;;;;5.80;3.50;;;;;;;23.39;90.16;100686.15;106638;1254;60361;-85
2023/05/31 04:58:00;;;;;;;3.60;3.30;;;;;;;23.67;89.63;100680.29;106166;1258;72673;-87
2023/05/31 05:00:28;;;;;;;5.20;3.90;;;;;;;23.88;89.06;100681.38;106091;1254;63705;-87
2023/05/31 05:03:03;;;;;;;3.90;3.60;;;;;;;24.12;89.30;100684.48;106550;1253;72254;-89
2023/05/31 05:05:31;;;;;;;5.00;3.20;;;;;;;24.34;84.74;100680.16;108094;1254;59096;-87
2023/05/31 05:07:58;;;;;;;4.30;3.30;;;;;;;24.39;82.91;100687.42;106542;1254;60479;-87
2023/05/31 05:10:25;;;;;;;4.00;3.00;;;;;;;24.52;79.60;100679.87;106304;1257;72557;-87
2023/05/31 05:12:53;;;;;;;7.10;3.20;;;;;;;24.58;77.74;100683.23;106569;1259;63663;-85
2023/05/31 05:15:20;;;;;;;5.60;3.00;;;;;;;24.71;78.80;100689.97;106244;1252;72624;-87
2023/05/31 05:17:47;;;;;;;7.20;3.40;;;;;;;24.96;76.87;100696.30;106001;1253;61555;-87
2023/05/31 05:20:15;;;;;;;7.10;3.30;;;;;;;25.30;73.39;100693.90;105930;1254;60415;-86
2023/05/31 05:22:54;;;;;;;3.00;2.60;;;;;;;25.50;69.74;100691.54;105925;1254;74404;-87
2023/05/31 05:25:22;;;;;;;5.30;3.10;;;;;;;25.70;69.79;100693.84;105835;1257;64030;-87
2023/05/31 05:27:49;;;;;;;6.80;3.10;;;;;;;25.88;67.60;100691.56;105937;1253;72699;-90
2023/05/31 05:30:19;;;;;;;2.90;2.60;;;;;;;25.97;64.07;100696.60;105900;1256;60441;-89
2023/05/31 05:32:47;;;;;;;3.10;2.50;;;;;;;26.12;63.72;100697.89;105951;1254;60420;-89
2023/05/31 05:35:14;;;;;;;3.00;2.60;;;;;;;26.40;61.53;100694.47;105871;1254;73973;-88
2023/05/31 05:37:41;;;;;;;4.40;2.70;;;;;;;26.69;58.55;100689.19;105798;1252;62143;-91
2023/05/31 05:40:09;;;;;;;5.00;2.80;;;;;;;26.87;56.60;100687.30;105929;1254;72509;-88
2023/05/31 05:42:36;;;;;;;3.60;2.60;;;;;;;26.88;57.30;100688.20;105833;1252;60512;-89
2023/05/31 05:45:05;;;;;;;4.70;3.60;;;;;;;26.92;54.85;100685.48;105762;1254;60546;-91
2023/05/31 05:47:34;;;;;;;4.80;2.40;;;;;;;26.85;54.22;100685.02;106114;1256;73119;-92
2023/05/31 05:50:02;;;;;;;3.30;2.10;;;;;;;26.90;53.59;100687.41;105844;1254;63821;-87
2023/05/31 05:52:30;;;;;;;2.50;2.30;;;;;;;26.95;51.38;100685.95;105840;1254;72542;-88
2023/05/31 05:54:57;;;;;;;2.40;2.20;;;;;;;26.91;52.74;100691.69;105764;1257;60530;-90
2023/05/31 05:57:25;;;;;;;4.20;2.60;;;;;;;26.85;51.90;100692.39;105846;1254;60552;-88
2023/05/31 05:59:54;;;;;;;4.40;2.30;;;;;;;26.77;52.46;100688.81;105879;1254;72624;-88
2023/05/31 06:02:22;;;;;;;3.20;2.50;;;;;;;26.86;53.03;100686.73;106923;1257;63814;-88
2023/05/31 06:04:51;;;;;;;3.50;2.20;;;;;;;27.06;53.04;100687.91;107675;1254;71692;-90
2023/05/31 06:07:19;;;;;;;2.50;2.10;;;;;;;27.38;51.74;100690.04;107561;1254;60550;-92
2023/05/31 06:09:50;;;;;;;2.30;2.10;;;;;;;27.62;52.35;100687.77;108034;1254;60360;-90
2023/05/31 06:12:20;;;;;;;3.40;2.10;;;;;;;27.83;50.24;100687.34;107568;1254;72658;-89
2023/05/31 06:14:50;;;;;;;4.40;2.30;;;;;;;28.10;47.86;100690.96;107528;1254;62730;-88
2023/05/31 06:17:18;;;;;;;4.50;2.60;;;;;;;28.35;47.20;100691.56;107996;1252;71533;-87
2023/05/31 06:19:48;;;;;;;2.50;2.20;;;;;;;28.55;45.79;100694.91;107796;1253;60285;-88
2023/05/31 06:22:16;;;;;;;2.70;2.40;;;;;;;28.73;43.56;100696.67;107405;1252;59681;-89
2023/05/31 06:24:46;;;;;;;5.80;2.10;;;;;;;28.93;43.33;100693.81;108327;1254;75007;-86
2023/05/31 06:27:30;;;;;;;3.40;2.00;;;;;;;29.09;42.37;100699.29;108204;1254;63443;-88
2023/05/31 06:30:00;;;;;;;6.60;2.30;;;;;;;29.15;42.20;100699.48;108175;1252;71108;-90
2023/05/31 06:33:03;;;;;;;4.90;2.70;;;;;;;29.17;42.33;100702.39;108153;1256;60547;-89
2023/05/31 06:35:34;;;;;;;4.10;2.90;;;;;;;29.19;40.85;100704.70;108052;1259;60341;-89
2023/05/31 06:38:03;;;;;;;6.50;2.10;;;;;;;29.18;40.87;100700.18;107826;1253;75373;-88
2023/05/31 06:40:39;;;;;;;3.80;2.20;;;;;;;29.26;41.63;100702.02;107773;1254;62679;-89
2023/05/31 06:43:30;;;;;;;4.10;2.50;;;;;;;29.28;40.01;100696.58;108181;1256;72974;-88
2023/05/31 06:46:39;;;;;;;4.40;2.60;;;;;;;29.08;39.56;100696.61;108161;1253;60403;-89
2023/05/31 06:49:35;;;;;;;8.80;7.90;;;;;;;29.02;40.01;100697.90;107855;1257;60356;-91
2023/05/31 06:52:26;;;;;;;5.30;4.60;;;;;;;28.97;39.50;100698.17;107857;1254;72701;-88
2023/05/31 06:55:12;;;;;;;4.20;2.70;;;;;;;28.84;39.89;100697.70;106103;1254;63733;-92
2023/05/31 06:57:40;;;;;;;7.80;7.00;;;;;;;28.69;40.60;100699.05;106013;1254;72690;-93
2023/05/31 07:00:10;;;;;;;4.00;2.40;;;;;;;28.59;40.65;100700.98;106185;1254;60417;-91
2023/05/31 07:02:38;;;;;;;2.90;2.30;;;;;;;28.67;40.91;100703.58;106294;1252;60482;-90
2023/05/31 07:05:05;;;;;;;5.00;2.50;;;;;;;28.82;40.25;100698.73;105956;1254;72587;-92
2023/05/31 07:07:32;;;;;;;2.50;2.30;;;;;;;28.79;40.41;100699.33;105970;1254;62521;-88
2023/05/31 07:10:00;;;;;;;2.20;2.00;;;;;;;28.72;40.83;100703.98;106008;1254;72060;-89
2023/05/31 07:12:28;;;;;;;3.60;2.30;;;;;;;28.76;39.82;100697.08;106095;1257;60536;-89
2023/05/31 07:14:56;;;;;;;5.20;4.70;;;;;;;28.86;40.16;100694.73;106159;1254;60542;-89
2023/05/31 07:17:23;;;;;;;8.50;7.60;;;;;;;29.00;42.32;100695.34;106122;1257;73929;-91
2023/05/31 07:19:51;;;;;;;7.40;3.20;;;;;;;29.13;40.76;100695.95;106018;1254;62404;-87
2023/05/31 07:22:22;;;;;;;4.10;3.70;;;;;;;29.27;39.61;100701.56;106141;1253;72558;-88
2023/05/31 07:24:49;;;;;;;2.90;1.90;;;;;;;29.44;40.47;100703.19;106126;1254;60595;-88
2023/05/31 07:27:16;;;;;;;3.10;2.00;;;;;;;29.72;39.63;100705.02;106139;1254;60633;-88
2023/05/31 07:29:43;;;;;;;7.30;2.50;;;;;;;30.03;38.06;100708.01;107689;1254;72784;-91
2023/05/31 07:32:10;;;;;;;4.00;2.50;;;;;;;30.26;37.69;100703.98;109687;1252;64442;-88
2023/05/31 07:34:37;;;;;;;3.10;1.70;;;;;;;30.33;37.25;100703.83;107884;1254;71595;-87
2023/05/31 07:37:06;;;;;;;6.20;2.70;;;;;;;30.39;37.38;100709.61;106223;1256;60384;-90
2023/05/31 07:39:33;;;;;;;3.30;2.70;;;;;;;30.40;36.22;100710.40;106414;1253;60693;-91
2023/05/31 07:42:01;;;;;;;2.20;1.50;;;;;;;30.33;37.16;100710.45;106138;1254;72573;-88
2023/05/31 07:44:28;;;;;;;4.70;2.90;;;;;;;30.20;38.25;100708.48;106201;1254;63917;-92
2023/05/31 07:46:55;;;;;;;20.90;18.90;;;;;;;30.03;37.10;100705.35;106136;1254;71350;-91
2023/05/31 10:44:05;;;;;;;2.40;1.90;;;;;;;29.46;34.49;100673.04;102908;1292;614043;-88
2023/05/31 10:46:32;;;;;;;2.00;1.80;;;;;;;29.32;34.72;100669.07;106248;1266;59305;-85
2023/05/31 10:49:00;;;;;;;2.40;1.70;;;;;;;29.28;35.49;100665.35;105426;1266;60311;-87
2023/05/31 10:51:46;;;;;;;1.90;1.50;;;;;;;29.21;35.51;100663.02;105562;1264;71097;-90
2023/05/31 10:54:27;;;;;;;4.90;1.90;;;;;;;29.12;35.23;100661.51;105434;1262;64343;-88
2023/05/31 10:56:55;;;;;;;2.20;2.00;;;;;;;29.04;35.58;100659.55;104940;1265;625342;-90
2023/05/31 10:59:23;;;;;;;3.40;1.50;;;;;;;29.00;35.60;100660.59;106045;1255;59813;-88
2023/05/31 11:01:51;;;;;;;3.70;1.50;;;;;;;28.90;35.36;100659.05;105962;1256;60406;-88
2023/05/31 11:04:37;;;;;;;2.20;1.80;;;;;;;28.76;35.47;100657.80;102816;1294;601209;-88
2023/05/31 11:07:22;;;;;;;5.60;2.50;;;;;;;28.53;36.24;100653.40;104853;1267;60587;-93
2023/05/31 11:09:58;;;;;;;5.50;3.50;;;;;;;28.36;36.68;100659.33;104966;1271;59273;-90
2023/05/31 11:12:31;;;;;;;2.70;2.10;;;;;;;28.27;37.28;100658.44;104854;1265;72374;-88
2023/05/31 11:15:03;;;;;;;6.20;3.20;;;;;;;28.21;37.51;100655.71;104995;1274;62547;-87
2023/05/31 11:17:51;;;;;;;2.60;2.00;;;;;;;28.16;38.26;100658.62;104695;1271;583192;-88
2023/05/31 11:20:19;;;;;;;3.30;2.00;;;;;;;28.06;38.93;100656.16;104897;1266;59291;-90
2023/05/31 11:22:47;;;;;;;5.70;3.00;;;;;;;27.99;39.16;100651.80;105491;1263;59328;-89
2023/05/31 11:25:21;;;;;;;9.30;2.10;;;;;;;27.92;39.02;100651.50;105381;1259;71296;-89
2023/05/31 11:28:05;;;;;;;3.00;1.80;;;;;;;27.77;39.16;100649.79;105475;1266;63937;-87
2023/05/31 11:30:43;;;;;;;5.70;1.70;;;;;;;27.63;38.58;100652.13;105486;1260;71602;-90
2023/05/31 11:33:14;;;;;;;3.90;2.50;;;;;;;27.40;38.41;100647.04;105534;1264;59970;-90
2023/05/31 11:35:41;;;;;;;3.20;2.40;;;;;;;27.19;39.82;100645.86;105544;1258;60306;-88
2023/05/31 11:38:11;;;;;;;3.70;2.60;;;;;;;27.08;40.47;100645.76;105613;1257;76317;-87
2023/05/31 11:40:39;;;;;;;4.60;2.00;;;;;;;27.01;40.37;100646.19;105565;1257;62582;-91
2023/05/31 11:43:08;;;;;;;3.10;2.00;;;;;;;26.91;41.81;100641.17;106456;1257;71573;-89
2023/05/31 11:45:42;;;;;;;3.20;2.00;;;;;;;26.81;41.23;100645.20;107088;1263;60464;-91
2023/05/31 11:48:09;;;;;;;2.80;2.00;;;;;;;26.67;42.09;100639.66;107267;1260;59748;-88
2023/05/31 11:50:38;;;;;;;6.00;3.30;;;;;;;26.55;42.29;100634.92;106937;1251;73281;-90
2023/05/31 11:53:06;;;;;;;5.40;2.20;;;;;;;26.52;42.47;100635.52;106273;1251;64126;-89
2023/05/31 11:55:35;;;;;;;8.20;2.30;;;;;;;26.50;42.33;100637.45;106295;1250;73118;-90
2023/05/31 11:58:06;;;;;;;3.80;2.20;;;;;;;26.43;41.44;100634.45;106414;1256;60692;-88
2023/05/31 12:00:35;;;;;;;3.80;2.10;;;;;;;26.35;42.24;100640.27;106827;1256;60091;-89
2023/05/31 12:03:13;;;;;;;3.40;2.60;;;;;;;26.27;42.95;100634.79;106906;1256;71996;-90
2023/05/31 12:05:41;;;;;;;3.60;2.10;;;;;;;26.20;42.41;100636.07;107072;1250;62391;-90
2023/05/31 12:08:12;;;;;;;3.30;2.20;;;;;;;26.13;43.34;100638.58;106412;1257;71409;-89
2023/05/31 12:10:45;;;;;;;4.70;2.80;;;;;;;26.05;43.35;100639.37;106013;1256;59851;-87
2023/05/31 12:13:17;;;;;;;6.30;2.10;;;;;;;25.98;43.66;100645.27;106145;1255;59548;-89
2023/05/31 12:15:55;;;;;;;3.60;2.00;;;;;;;25.89;43.95;100646.86;106180;1256;73176;-92
2023/05/31 12:18:24;;;;;;;3.00;2.30;;;;;;;25.84;44.21;100646.63;106058;1256;62742;-89
2023/05/31 12:20:52;;;;;;;3.00;2.50;;;;;;;25.81;44.83;100644.02;106093;1257;73187;-88
2023/05/31 12:23:20;;;;;;;3.90;2.30;;;;;;;25.78;46.48;100640.73;106231;1251;60685;-89
2023/05/31 12:26:27;;;;;;;3.10;2.40;;;;;;;25.79;46.65;100639.27;102943;1289;616068;-88
2023/05/31 12:28:55;;;;;;;28.30;25.60;;;;;;;25.76;46.45;100641.59;104982;1267;59248;-91
2023/05/31 12:31:23;;;;;;;37.90;31.80;;;;;;;25.73;46.04;100636.63;104993;1267;60188;-89
2023/05/31 12:34:05;;;;;;;11.00;5.00;;;;;;;25.68;47.38;100637.44;105201;1269;72040;-89
2023/05/31 12:36:39;;;;;;;6.10;4.60;;;;;;;25.58;45.61;100634.13;105170;1265;64383;-93
2023/05/31 12:39:24;;;;;;;3.60;2.40;;;;;;;25.50;46.15;100634.04;105145;1260;691033;-87
2023/05/31 12:41:51;;;;;;;4.30;2.50;;;;;;;25.46;46.22;100636.30;105656;1263;60261;-89
2023/05/31 12:44:22;;;;;;;3.80;1.90;;;;;;;25.41;45.71;100635.10;105797;1259;60629;-87
2023/05/31 12:46:51;;;;;;;3.10;2.30;;;;;;;25.35;45.79;100632.83;106381;1261;70286;-90
2023/05/31 12:49:33;;;;;;;3.40;2.30;;;;;;;25.26;47.46;100633.77;106463;1260;62713;-91
2023/05/31 12:52:03;;;;;;;4.00;2.10;;;;;;;25.22;50.04;100635.35;106548;1259;71359;-86
2023/05/31 12:54:35;;;;;;;3.50;2.00;;;;;;;25.19;49.72;100630.70;106611;1261;59662;-89
2023/05/31 12:57:08;;;;;;;4.40;2.30;;;;;;;25.14;48.25;100633.27;105756;1259;60715;-89
2023/05/31 12:59:36;;;;;;;4.50;2.30;;;;;;;25.06;46.92;100633.85;105906;1260;72818;-91
2023/05/31 13:02:04;;;;;;;2.00;1.80;;;;;;;24.98;48.05;100630.73;105745;1258;63695;-89
2023/05/31 13:04:32;;;;;;;1.80;1.70;;;;;;;24.88;49.59;100630.30;106075;1256;71453;-89
2023/05/31 13:07:01;;;;;;;4.40;2.90;;;;;;;24.81;50.89;100634.52;105886;1256;60383;-91
2023/05/31 13:09:28;;;;;;;2.40;2.20;;;;;;;24.74;49.42;100630.40;105911;1259;60879;-89
2023/05/31 13:11:55;;;;;;;3.20;2.10;;;;;;;24.65;50.97;100631.50;106404;1260;72009;-88
2023/05/31 13:14:22;;;;;;;2.50;2.30;;;;;;;24.55;51.69;100627.08;106362;1260;62362;-90
2023/05/31 13:16:52;;;;;;;4.40;2.30;;;;;;;24.48;52.04;100625.96;106171;1259;71765;-92
2023/05/31 13:19:22;;;;;;;4.00;2.80;;;;;;;24.42;52.21;100625.23;106679;1257;60221;-92
2023/05/31 13:21:50;;;;;;;89.50;72.40;;;;;;;24.37;50.22;100625.08;106391;1257;60361;-90
2023/05/31 13:24:19;;;;;;;15.70;12.00;;;;;;;24.33;53.02;100619.32;106714;1259;71679;-90
2023/05/31 13:26:46;;;;;;;3.80;3.40;;;;;;;24.28;53.79;100620.94;106157;1256;63961;-90
2023/05/31 13:29:13;;;;;;;3.60;2.80;;;;;;;24.26;53.74;100618.09;106130;1257;72349;-89
2023/05/31 13:31:41;;;;;;;3.70;2.70;;;;;;;24.21;54.55;100621.77;106825;1253;60409;-90
2023/05/31 13:34:08;;;;;;;3.90;2.20;;;;;;;24.16;53.63;100620.66;106687;1253;60061;-88
2023/05/31 13:36:37;;;;;;;3.80;2.60;;;;;;;24.11;54.73;100620.20;106092;1258;73036;-90
2023/05/31 13:39:05;;;;;;;6.70;2.30;;;;;;;24.06;54.53;100619.42;106169;1254;64059;-90
2023/05/31 13:41:33;;;;;;;5.60;3.30;;;;;;;24.02;54.88;100622.61;106510;1253;72524;-89
2023/05/31 13:44:00;;;;;;;6.20;3.10;;;;;;;23.98;53.47;100627.17;107049;1253;60199;-87
2023/05/31 13:46:28;;;;;;;3.90;2.10;;;;;;;23.94;54.60;100624.20;106772;1252;60385;-90
2023/05/31 13:48:56;;;;;;;2.60;2.30;;;;;;;23.91;55.13;100628.35;106783;1254;70992;-87
2023/05/31 13:51:23;;;;;;;5.80;2.00;;;;;;;23.88;53.92;100628.91;106316;1256;62739;-91
2023/05/31 13:53:50;;;;;;;2.70;2.20;;;;;;;23.85;53.85;100626.39;106335;1256;72717;-87
2023/05/31 13:56:17;;;;;;;210.20;190.90;;;;;;;23.82;52.91;100628.77;106497;1251;59734;-91
2023/05/31 13:58:44;;;;;;;10.10;9.10;;;;;;;23.79;52.51;100625.14;106244;1251;60315;-90
2023/05/31 14:01:12;;;;;;;4.40;4.00;;;;;;;23.77;52.41;100625.35;106352;1251;72911;-90
2023/05/31 14:03:39;;;;;;;3.50;2.70;;;;;;;23.75;53.99;100628.25;106367;1251;62603;-90
2023/05/31 14:06:07;;;;;;;3.30;2.70;;;;;;;23.73;53.62;100625.81;106236;1251;71460;-89
2023/05/31 14:08:34;;;;;;;6.10;3.60;;;;;;;23.72;55.72;100622.38;106330;1254;60472;-90
2023/05/31 14:11:03;;;;;;;5.90;2.40;;;;;;;23.69;56.33;100621.59;106315;1251;60140;-91
2023/05/31 14:13:31;;;;;;;8.00;2.80;;;;;;;23.66;54.79;100617.49;106298;1256;72041;-87
2023/05/31 14:15:59;;;;;;;3.90;2.30;;;;;;;23.64;53.88;100612.34;106288;1257;62733;-90
2023/05/31 14:18:29;;;;;;;5.20;4.60;;;;;;;23.65;54.97;100611.57;106188;1251;71323;-88